Time;durP1;ratioP1;P1;durP2;ratioP2;P2;SDS_P1;SDS_P2;PMS_P1;PMS_P2;Temp;Humidity;BMP_temperature;BMP_pressure;BME280_temperature;BME280_humidity;BME280_pressure;Samples;Min_cycle;Max_cycle;Signal;HPM_P1;HPM_P2
2023/03/29 00:01:57;;;;;;;6.33;2.60;;;4.90;99.90;;;;;;4975847;28;20244;-79
2023/03/29 00:04:26;;;;;;;6.37;2.60;;;4.90;99.90;;;;;;4974868;28;20181;-80
2023/03/29 00:06:52;;;;;;;5.40;2.70;;;4.90;99.90;;;;;;4963308;28;20689;-79
2023/03/29 00:09:18;;;;;;;8.67;3.20;;;4.90;99.90;;;;;;4971632;28;20277;-79
2023/03/29 00:11:44;;;;;;;7.60;3.00;;;5.00;99.90;;;;;;4976906;28;20256;-79
2023/03/29 00:14:11;;;;;;;9.00;3.10;;;5.00;99.90;;;;;;4975563;28;20206;-79
2023/03/29 00:16:37;;;;;;;8.80;3.00;;;5.00;99.90;;;;;;4977684;28;20199;-80
2023/03/29 00:19:03;;;;;;;6.23;2.37;;;5.00;99.90;;;;;;4984047;28;20743;-80
2023/03/29 00:21:29;;;;;;;4.70;2.47;;;5.00;99.90;;;;;;4979525;28;20297;-79
2023/03/29 00:23:56;;;;;;;8.10;3.20;;;5.00;99.90;;;;;;4975736;28;20221;-77
2023/03/29 00:26:21;;;;;;;6.87;2.90;;;4.90;99.90;;;;;;4980772;28;20214;-79
2023/03/29 00:28:47;;;;;;;5.60;2.30;;;4.90;99.90;;;;;;4983184;28;20205;-79
2023/03/29 00:31:15;;;;;;;5.03;2.93;;;4.80;99.90;;;;;;4979847;28;20188;-79
2023/03/29 00:33:41;;;;;;;6.47;2.70;;;4.80;99.90;;;;;;4977830;28;20677;-79
2023/03/29 00:36:09;;;;;;;4.97;2.37;;;4.80;99.90;;;;;;4982869;28;20283;-77
2023/03/29 00:38:35;;;;;;;6.07;2.60;;;4.70;99.90;;;;;;4977857;28;20312;-77
2023/03/29 00:41:02;;;;;;;8.40;3.17;;;4.70;99.90;;;;;;4979940;28;20197;-77
2023/03/29 00:43:28;;;;;;;7.40;2.87;;;4.70;99.90;;;;;;4973466;28;20183;-77
2023/03/29 00:45:53;;;;;;;8.83;2.20;;;4.70;99.90;;;;;;4976807;28;20217;-77
2023/03/29 00:48:23;;;;;;;12.33;3.40;;;4.80;99.90;;;;;;4975919;28;20300;-78
2023/03/29 00:51:02;;;;;;;8.27;3.23;;;4.90;99.90;;;;;;4970990;28;20292;-76
2023/03/29 00:53:33;;;;;;;8.13;3.10;;;4.80;99.90;;;;;;4972211;28;20233;-77
2023/03/29 00:56:06;;;;;;;6.57;2.93;;;4.90;99.90;;;;;;4971357;28;20703;-77
2023/03/29 00:58:53;;;;;;;6.93;2.70;;;4.90;99.90;;;;;;4973502;28;20241;-77
2023/03/29 01:01:32;;;;;;;9.27;2.87;;;4.80;99.90;;;;;;4985285;28;20644;-77
2023/03/29 01:04:07;;;;;;;6.60;2.40;;;4.80;99.90;;;;;;4972544;28;20225;-77
2023/03/29 01:06:36;;;;;;;9.07;2.27;;;4.80;99.90;;;;;;4975781;28;20208;-77
2023/03/29 01:09:06;;;;;;;7.13;2.60;;;4.80;99.90;;;;;;4982138;28;20201;-77
2023/03/29 01:11:47;;;;;;;11.10;3.50;;;4.70;99.90;;;;;;4973714;28;20214;-77
2023/03/29 01:14:27;;;;;;;8.93;2.87;;;4.70;99.90;;;;;;4975364;28;20211;-77
2023/03/29 01:16:53;;;;;;;6.67;2.53;;;4.70;99.90;;;;;;4979739;28;20574;-78
2023/03/29 01:19:25;;;;;;;7.37;2.30;;;4.70;99.90;;;;;;4977052;28;20209;-77
2023/03/29 01:22:03;;;;;;;5.63;2.13;;;4.70;99.90;;;;;;4951973;28;20266;-76
2023/03/29 01:24:52;;;;;;;6.33;2.57;;;4.60;99.90;;;;;;4956382;28;20210;-77
2023/03/29 01:27:36;;;;;;;4.03;2.13;;;4.60;99.90;;;;;;4956118;28;21012;-77
2023/03/29 01:30:07;;;;;;;8.80;2.53;;;4.60;99.90;;;;;;4956575;28;20205;-77
2023/03/29 01:32:41;;;;;;;5.63;3.10;;;4.60;99.90;;;;;;4953662;28;20203;-77
2023/03/29 01:35:14;;;;;;;10.93;2.90;;;4.50;99.90;;;;;;4950385;28;20233;-77
2023/03/29 01:37:51;;;;;;;6.90;2.50;;;4.50;99.90;;;;;;4951653;28;20624;-77
2023/03/29 01:40:17;;;;;;;7.43;2.50;;;4.60;99.90;;;;;;4950822;28;20684;-77
2023/03/29 01:42:47;;;;;;;7.13;2.37;;;4.60;99.90;;;;;;4951832;28;20211;-77
2023/03/29 01:45:12;;;;;;;6.80;2.73;;;4.60;99.90;;;;;;4952460;28;20206;-78
2023/03/29 01:48:15;;;;;;;5.13;2.43;;;4.60;99.90;;;;;;4954849;28;20261;-77
2023/03/29 01:50:49;;;;;;;4.37;2.13;;;4.70;99.90;;;;;;4955951;28;20205;-78
2023/03/29 01:53:38;;;;;;;5.70;2.90;;;4.60;99.90;;;;;;4959608;28;20584;-77
2023/03/29 01:56:16;;;;;;;5.43;1.80;;;4.70;99.90;;;;;;4954926;28;20202;-78
2023/03/29 01:58:49;;;;;;;7.97;2.63;;;4.60;99.90;;;;;;4957926;28;20201;-78
2023/03/29 02:01:18;;;;;;;7.90;2.37;;;4.60;99.90;;;;;;4959335;28;20178;-78
2023/03/29 02:03:49;;;;;;;7.37;2.50;;;4.60;99.90;;;;;;4961033;28;20203;-78
2023/03/29 02:06:19;;;;;;;4.20;2.30;;;4.50;99.90;;;;;;4960486;28;21192;-77
2023/03/29 02:08:46;;;;;;;8.17;2.63;;;4.50;99.90;;;;;;4959794;28;20270;-78
2023/03/29 02:11:12;;;;;;;7.87;2.50;;;4.40;99.90;;;;;;4959530;28;20718;-78
2023/03/29 02:13:38;;;;;;;7.83;2.80;;;4.50;99.90;;;;;;4958196;28;20592;-77
2023/03/29 02:16:10;;;;;;;8.00;2.30;;;4.60;99.90;;;;;;4957459;28;20226;-78
2023/03/29 02:18:38;;;;;;;10.03;2.37;;;4.50;99.90;;;;;;4957196;28;20283;-78
2023/03/29 02:21:04;;;;;;;6.40;3.03;;;4.50;99.90;;;;;;4955761;28;20209;-78
2023/03/29 02:23:34;;;;;;;7.77;2.50;;;4.50;99.90;;;;;;4956111;28;20199;-78
2023/03/29 02:26:01;;;;;;;10.37;3.90;;;4.50;99.90;;;;;;4955840;28;20217;-77
2023/03/29 02:28:28;;;;;;;4.43;2.00;;;4.50;99.90;;;;;;4958992;28;20182;-79
2023/03/29 02:31:26;;;;;;;5.43;2.50;;;4.50;99.90;;;;;;4964652;28;20182;-77
2023/03/29 02:34:06;;;;;;;8.03;2.23;;;4.40;99.90;;;;;;4958110;28;20209;-77
2023/03/29 02:36:49;;;;;;;7.57;2.40;;;4.40;99.90;;;;;;4957528;28;20244;-78
2023/03/29 02:39:17;;;;;;;7.20;2.47;;;4.40;99.90;;;;;;4958737;28;20203;-80
2023/03/29 02:41:46;;;;;;;9.70;2.10;;;4.40;99.90;;;;;;4966734;28;20206;-78
2023/03/29 02:44:17;;;;;;;4.27;2.07;;;4.50;99.90;;;;;;4970872;28;20225;-79
2023/03/29 02:46:43;;;;;;;7.40;2.20;;;4.40;99.90;;;;;;4972299;28;20239;-77
2023/03/29 02:49:10;;;;;;;8.70;2.30;;;4.50;99.90;;;;;;4976300;28;20632;-78
2023/03/29 02:51:37;;;;;;;7.50;2.50;;;4.40;99.90;;;;;;4973902;28;20715;-78
2023/03/29 02:54:12;;;;;;;4.80;2.43;;;4.40;99.90;;;;;;4974670;28;20234;-78
2023/03/29 02:56:48;;;;;;;10.37;2.60;;;4.40;99.90;;;;;;4973549;28;20206;-77
2023/03/29 02:59:18;;;;;;;7.83;2.27;;;4.40;99.90;;;;;;4968357;28;20608;-79
2023/03/29 03:01:44;;;;;;;9.97;2.60;;;4.40;99.90;;;;;;4969947;28;20228;-78
2023/03/29 03:04:11;;;;;;;6.47;2.33;;;4.30;99.90;;;;;;4974070;28;20668;-78
2023/03/29 03:06:37;;;;;;;4.77;2.00;;;4.40;99.90;;;;;;4973999;28;20271;-78
2023/03/29 03:09:06;;;;;;;4.03;1.97;;;4.30;99.90;;;;;;4971967;28;20278;-78
2023/03/29 03:11:32;;;;;;;8.43;2.27;;;4.30;99.90;;;;;;4975827;28;20213;-78
2023/03/29 03:13:58;;;;;;;6.77;2.33;;;4.30;99.90;;;;;;4976421;28;20209;-77
2023/03/29 03:16:25;;;;;;;6.00;2.30;;;4.30;99.90;;;;;;4973504;28;20195;-77
2023/03/29 03:18:52;;;;;;;7.57;2.53;;;4.20;99.90;;;;;;4975108;28;20679;-75
2023/03/29 03:21:18;;;;;;;6.33;2.87;;;4.20;99.90;;;;;;4972016;28;20218;-76
2023/03/29 03:23:46;;;;;;;6.20;2.77;;;4.20;99.90;;;;;;4974077;28;20209;-76
2023/03/29 03:26:12;;;;;;;4.30;2.10;;;4.10;99.90;;;;;;4972945;28;20257;-77
2023/03/29 03:28:38;;;;;;;5.27;2.70;;;4.00;99.90;;;;;;4973863;28;20263;-75
2023/03/29 03:31:04;;;;;;;4.63;2.03;;;4.10;99.90;;;;;;4973290;28;20181;-77
2023/03/29 03:33:30;;;;;;;5.87;2.33;;;4.00;99.90;;;;;;4974806;28;20213;-76
2023/03/29 03:36:01;;;;;;;6.20;2.10;;;3.90;99.90;;;;;;4972433;28;20211;-77
2023/03/29 03:38:28;;;;;;;8.47;2.00;;;4.00;99.90;;;;;;4974216;28;20233;-77
2023/03/29 03:40:58;;;;;;;6.27;2.43;;;3.90;99.90;;;;;;4971422;28;20202;-77
2023/03/29 03:43:24;;;;;;;8.13;2.70;;;3.90;99.90;;;;;;4972922;28;20201;-78
2023/03/29 03:45:49;;;;;;;10.43;2.50;;;4.00;99.90;;;;;;4975043;28;20188;-78
2023/03/29 03:48:16;;;;;;;8.57;2.30;;;3.90;99.90;;;;;;4973781;28;20196;-78
2023/03/29 03:50:50;;;;;;;6.90;3.20;;;3.90;99.90;;;;;;4971278;28;20677;-77
2023/03/29 03:53:16;;;;;;;3.47;1.80;;;3.90;99.90;;;;;;4972839;28;20216;-78
2023/03/29 03:55:49;;;;;;;7.10;2.20;;;3.90;99.90;;;;;;4976859;28;20172;-76
2023/03/29 03:58:16;;;;;;;10.17;2.50;;;3.90;99.90;;;;;;4975149;28;20173;-77
2023/03/29 04:00:41;;;;;;;9.33;3.30;;;3.80;99.90;;;;;;4977012;28;20410;-77
2023/03/29 04:03:07;;;;;;;6.30;3.17;;;3.80;99.90;;;;;;4975404;28;20209;-78
2023/03/29 04:05:37;;;;;;;4.87;2.20;;;3.80;99.90;;;;;;4974693;28;20282;-78
2023/03/29 04:08:05;;;;;;;9.23;2.60;;;3.80;99.90;;;;;;4973363;28;20231;-76
2023/03/29 04:10:31;;;;;;;7.93;2.50;;;3.80;99.90;;;;;;4972652;28;20533;-77
2023/03/29 04:13:01;;;;;;;12.23;2.80;;;3.70;99.90;;;;;;4972621;28;20184;-77
2023/03/29 04:15:27;;;;;;;7.07;2.47;;;3.80;99.90;;;;;;4975791;28;20717;-77
2023/03/29 04:17:56;;;;;;;8.73;2.60;;;3.80;99.90;;;;;;4972511;28;20304;-77
2023/03/29 04:20:23;;;;;;;9.13;2.80;;;3.70;99.90;;;;;;4971989;28;20225;-78
2023/03/29 04:22:50;;;;;;;6.57;2.70;;;3.70;99.90;;;;;;4971471;28;20212;-78
2023/03/29 04:25:16;;;;;;;11.00;2.77;;;3.70;99.90;;;;;;4972485;28;20177;-76
2023/03/29 04:27:42;;;;;;;3.90;2.47;;;3.70;99.90;;;;;;4981934;28;20217;-74
2023/03/29 04:30:09;;;;;;;8.43;2.70;;;3.70;99.90;;;;;;4968087;28;20272;-76
2023/03/29 04:32:35;;;;;;;6.37;2.37;;;3.70;99.90;;;;;;4971618;28;20203;-77
2023/03/29 04:35:03;;;;;;;8.63;2.90;;;3.70;99.90;;;;;;4975080;28;20618;-76
2023/03/29 04:37:30;;;;;;;8.13;3.10;;;3.70;99.90;;;;;;4971661;28;20357;-77
2023/03/29 04:39:56;;;;;;;4.70;2.77;;;3.70;99.90;;;;;;4972161;28;20200;-77
2023/03/29 04:42:22;;;;;;;5.67;3.00;;;3.70;99.90;;;;;;4971763;28;20715;-75
2023/03/29 04:44:47;;;;;;;4.90;2.70;;;3.70;99.90;;;;;;4978061;28;20286;-76
2023/03/29 04:47:13;;;;;;;10.07;3.30;;;3.70;99.90;;;;;;4974569;28;20305;-76
2023/03/29 04:49:40;;;;;;;9.47;3.20;;;3.60;99.90;;;;;;4972156;28;20699;-76
2023/03/29 04:52:06;;;;;;;6.67;3.17;;;3.60;99.90;;;;;;4974071;28;20174;-76
2023/03/29 04:54:32;;;;;;;8.07;3.03;;;3.60;99.90;;;;;;4973487;28;20305;-76
2023/03/29 04:56:57;;;;;;;7.13;3.40;;;3.60;99.90;;;;;;4974306;28;20301;-76
2023/03/29 04:59:23;;;;;;;6.33;3.07;;;3.70;99.90;;;;;;4972106;28;20681;-79
2023/03/29 05:01:49;;;;;;;7.77;3.40;;;3.60;99.90;;;;;;4980156;28;20689;-80
2023/03/29 05:04:14;;;;;;;7.97;3.53;;;3.60;99.90;;;;;;4974836;28;20537;-79
2023/03/29 05:06:40;;;;;;;10.37;3.43;;;3.60;99.90;;;;;;4974336;28;20298;-79
2023/03/29 05:09:07;;;;;;;7.20;3.60;;;3.60;99.90;;;;;;4975064;28;20558;-78
2023/03/29 05:11:33;;;;;;;6.90;3.27;;;3.70;99.90;;;;;;4973111;28;20201;-80
2023/03/29 05:14:02;;;;;;;7.17;3.20;;;3.80;99.90;;;;;;4980105;28;20218;-80
2023/03/29 05:16:28;;;;;;;10.57;3.50;;;3.70;99.90;;;;;;4977440;28;20274;-80
2023/03/29 05:18:55;;;;;;;6.97;3.50;;;3.80;99.90;;;;;;4982438;28;20187;-80
2023/03/29 05:21:22;;;;;;;6.83;3.20;;;3.80;99.90;;;;;;4981125;28;20239;-80
2023/03/29 05:23:48;;;;;;;9.13;3.37;;;3.80;99.90;;;;;;4980386;28;20253;-80
2023/03/29 05:26:14;;;;;;;10.87;3.53;;;3.80;99.90;;;;;;4984907;28;20211;-80
2023/03/29 05:28:40;;;;;;;6.63;3.13;;;3.80;99.90;;;;;;4977475;28;20185;-81
2023/03/29 05:31:07;;;;;;;13.77;3.93;;;3.90;99.90;;;;;;4977867;28;20702;-80
2023/03/29 05:33:34;;;;;;;10.07;3.97;;;3.90;99.90;;;;;;4980044;28;20209;-80
2023/03/29 05:36:08;;;;;;;9.83;3.53;;;4.00;99.90;;;;;;4974782;28;20213;-80
2023/03/29 05:38:34;;;;;;;5.90;3.47;;;4.00;99.90;;;;;;4979389;28;20207;-80
2023/03/29 05:41:00;;;;;;;13.67;3.80;;;4.10;99.90;;;;;;4980847;28;20202;-80
2023/03/29 05:43:26;;;;;;;8.07;3.90;;;4.10;99.90;;;;;;4978313;28;20174;-80
2023/03/29 05:45:55;;;;;;;7.80;3.93;;;4.20;99.90;;;;;;4990709;28;20223;-80
2023/03/29 05:48:22;;;;;;;9.10;3.57;;;4.30;99.90;;;;;;4982272;28;20630;-80
2023/03/29 05:50:50;;;;;;;9.90;3.30;;;4.60;99.90;;;;;;4974405;28;20720;-79
2023/03/29 05:53:16;;;;;;;6.43;3.40;;;4.70;99.90;;;;;;4980189;28;20199;-79
2023/03/29 05:55:42;;;;;;;7.67;2.73;;;4.80;99.90;;;;;;4981092;28;20208;-81
2023/03/29 05:58:09;;;;;;;5.00;3.50;;;5.00;99.90;;;;;;4973082;28;20224;-80
2023/03/29 06:00:36;;;;;;;8.10;3.37;;;5.30;99.90;;;;;;4980553;28;20771;-80
2023/03/29 06:03:02;;;;;;;7.00;3.53;;;5.40;99.90;;;;;;4984647;28;20213;-80
2023/03/29 06:05:28;;;;;;;9.60;4.50;;;5.40;99.90;;;;;;4981546;28;20499;-80
2023/03/29 06:07:55;;;;;;;11.03;4.03;;;5.60;99.90;;;;;;4979997;28;20701;-80
2023/03/29 06:10:22;;;;;;;13.00;3.93;;;5.60;99.90;;;;;;4987341;28;20193;-81
2023/03/29 06:12:51;;;;;;;8.77;3.50;;;5.70;99.90;;;;;;4976001;28;20210;-82
2023/03/29 06:15:17;;;;;;;7.10;3.67;;;5.50;99.90;;;;;;4983553;28;20203;-83
2023/03/29 06:17:46;;;;;;;10.17;3.87;;;5.40;99.90;;;;;;4980617;28;20210;-80
2023/03/29 06:20:12;;;;;;;9.07;4.00;;;5.60;99.90;;;;;;4977294;28;20217;-79
2023/03/29 06:22:39;;;;;;;9.40;3.87;;;5.50;99.90;;;;;;4976647;28;20204;-77
2023/03/29 06:25:14;;;;;;;8.37;3.90;;;5.50;99.90;;;;;;4976844;28;20228;-79
2023/03/29 06:27:39;;;;;;;11.27;3.23;;;5.60;99.90;;;;;;4976261;28;20214;-79
2023/03/29 06:30:06;;;;;;;7.33;2.93;;;5.80;99.90;;;;;;4977686;28;20217;-80
2023/03/29 06:32:33;;;;;;;8.87;4.03;;;5.70;99.90;;;;;;4978061;28;20716;-80
2023/03/29 06:34:59;;;;;;;10.00;3.57;;;5.70;99.90;;;;;;4984229;28;20295;-81
2023/03/29 06:37:25;;;;;;;8.17;3.10;;;5.70;99.90;;;;;;4989919;28;20198;-81
2023/03/29 06:39:53;;;;;;;10.73;4.10;;;5.80;99.90;;;;;;4987798;28;20202;-80
2023/03/29 06:42:19;;;;;;;12.43;3.80;;;5.80;99.90;;;;;;4984116;28;20289;-81
2023/03/29 06:44:46;;;;;;;6.93;3.40;;;5.90;99.90;;;;;;4985787;28;20206;-79
2023/03/29 06:47:16;;;;;;;8.63;3.50;;;5.90;99.90;;;;;;4984554;28;20213;-81
2023/03/29 06:49:42;;;;;;;7.30;2.93;;;5.80;99.90;;;;;;4982903;28;20185;-80
2023/03/29 06:52:08;;;;;;;8.33;3.27;;;5.80;99.90;;;;;;4978743;28;20175;-81
2023/03/29 06:54:33;;;;;;;12.47;4.00;;;5.70;99.90;;;;;;4982951;28;20233;-81
2023/03/29 06:57:00;;;;;;;11.30;4.07;;;5.70;99.90;;;;;;4979152;28;20206;-80
2023/03/29 06:59:25;;;;;;;8.20;3.27;;;5.70;99.90;;;;;;4980421;28;20214;-80
2023/03/29 07:01:52;;;;;;;9.70;3.40;;;5.80;99.90;;;;;;4977251;28;20210;-80
2023/03/29 07:04:19;;;;;;;13.13;3.40;;;5.90;99.90;;;;;;4974204;28;20209;-78
2023/03/29 07:06:47;;;;;;;17.20;3.70;;;6.00;99.90;;;;;;4981859;28;20218;-79
2023/03/29 07:09:18;;;;;;;8.57;3.40;;;6.00;99.90;;;;;;4977385;28;20206;-78
2023/03/29 07:11:45;;;;;;;7.10;3.67;;;6.20;99.90;;;;;;4973844;28;20622;-79
2023/03/29 07:14:11;;;;;;;6.37;3.13;;;6.30;99.90;;;;;;4975238;28;20617;-80
2023/03/29 07:16:36;;;;;;;10.23;3.33;;;6.30;99.90;;;;;;4992746;28;20194;-77
2023/03/29 07:19:03;;;;;;;8.27;3.63;;;6.30;99.90;;;;;;4976879;28;20332;-77
2023/03/29 07:21:29;;;;;;;9.70;3.40;;;6.30;99.90;;;;;;4989653;28;20210;-80
2023/03/29 07:23:57;;;;;;;9.77;3.17;;;6.30;99.90;;;;;;4987523;28;20210;-76
2023/03/29 07:26:23;;;;;;;10.80;3.90;;;6.60;99.90;;;;;;4989293;28;20278;-81
2023/03/29 07:28:49;;;;;;;6.43;2.63;;;6.80;99.90;;;;;;4987401;28;20218;-76
2023/03/29 07:31:16;;;;;;;6.30;2.80;;;6.70;99.90;;;;;;4990557;28;20205;-80
2023/03/29 07:33:42;;;;;;;6.90;3.13;;;6.60;99.90;;;;;;4986634;28;20230;-77
2023/03/29 07:36:09;;;;;;;12.20;4.00;;;6.50;99.90;;;;;;4986301;28;20685;-77
2023/03/29 07:38:35;;;;;;;11.03;3.53;;;6.50;99.90;;;;;;4988392;28;20206;-80
2023/03/29 07:41:03;;;;;;;7.43;2.93;;;6.70;99.90;;;;;;4986325;28;20237;-79
2023/03/29 07:43:29;;;;;;;9.83;3.17;;;6.80;99.90;;;;;;4991420;28;20178;-80
2023/03/29 07:45:54;;;;;;;4.47;2.90;;;6.80;99.90;;;;;;4988956;28;20307;-80
2023/03/29 07:48:20;;;;;;;5.47;3.07;;;6.80;99.90;;;;;;4995569;28;20282;-81
2023/03/29 07:50:46;;;;;;;8.73;3.50;;;7.00;99.90;;;;;;4981839;28;20203;-79
2023/03/29 07:53:12;;;;;;;8.73;3.53;;;7.00;99.90;;;;;;4973185;28;20256;-80
2023/03/29 07:55:45;;;;;;;8.43;3.63;;;7.20;99.90;;;;;;4974458;28;20220;-80
2023/03/29 07:58:12;;;;;;;6.80;2.93;;;7.40;99.90;;;;;;4974095;28;20499;-80
2023/03/29 08:00:38;;;;;;;5.60;3.03;;;7.60;99.90;;;;;;4986573;28;20229;-80
2023/03/29 08:03:03;;;;;;;9.20;3.40;;;7.80;99.90;;;;;;4993527;28;20217;-80
2023/03/29 08:05:29;;;;;;;6.27;2.80;;;8.00;99.90;;;;;;4987771;28;20210;-80
2023/03/29 08:07:55;;;;;;;7.47;2.83;;;8.30;99.90;;;;;;4983139;28;20229;-78
2023/03/29 08:10:21;;;;;;;9.23;3.10;;;8.40;99.90;;;;;;4981932;28;20680;-77
2023/03/29 08:12:48;;;;;;;8.70;2.97;;;8.30;99.90;;;;;;4979755;28;20255;-77
2023/03/29 08:15:15;;;;;;;5.47;2.80;;;8.60;99.90;;;;;;4981491;28;20685;-75
2023/03/29 08:17:41;;;;;;;8.17;3.33;;;8.80;99.90;;;;;;4983921;28;20210;-77
2023/03/29 08:20:10;;;;;;;6.33;2.93;;;9.10;99.90;;;;;;4983864;28;20244;-77
2023/03/29 08:22:36;;;;;;;8.87;3.57;;;9.20;99.90;;;;;;4980547;28;20174;-76
2023/03/29 08:25:03;;;;;;;8.63;2.97;;;9.50;99.90;;;;;;4982506;28;20182;-76
2023/03/29 08:27:29;;;;;;;6.13;2.60;;;9.30;99.90;;;;;;4982145;28;20216;-76
2023/03/29 08:29:55;;;;;;;6.60;2.73;;;9.50;99.90;;;;;;4980984;28;20296;-78
2023/03/29 08:32:20;;;;;;;6.97;3.40;;;9.40;99.90;;;;;;4979222;28;20277;-81
2023/03/29 08:34:46;;;;;;;7.27;2.60;;;9.30;99.90;;;;;;4985652;28;20209;-82
2023/03/29 08:37:12;;;;;;;6.00;3.03;;;9.30;99.90;;;;;;4989532;28;20194;-79
2023/03/29 08:39:38;;;;;;;6.07;2.77;;;9.70;99.90;;;;;;4979266;28;20209;-78
2023/03/29 08:42:10;;;;;;;4.23;2.37;;;10.10;99.90;;;;;;4995388;28;20224;-79
2023/03/29 08:45:10;;;;;;;5.37;2.70;;;10.50;99.90;;;;;;4981149;28;20210;-82
2023/03/29 08:48:10;;;;;;;5.47;2.75;;;10.80;99.90;;;;;;4983192;28;20742;-82
2023/03/29 08:50:42;;;;;;;5.20;2.65;;;11.00;99.90;;;;;;4983824;28;20206;-81
2023/03/29 08:53:35;;;;;;;7.32;2.83;;;10.90;99.90;;;;;;4980011;28;20351;-82
2023/03/29 08:56:07;;;;;;;6.50;3.05;;;10.90;99.90;;;;;;4974517;28;20310;-82
2023/03/29 08:58:35;;;;;;;5.38;2.85;;;11.00;99.90;;;;;;4979447;28;20170;-82
2023/03/29 09:01:04;;;;;;;8.07;2.63;;;11.20;99.90;;;;;;4984978;28;20185;-81
2023/03/29 09:03:36;;;;;;;4.97;2.60;;;11.30;99.90;;;;;;4973137;28;20214;-80
2023/03/29 09:06:11;;;;;;;5.82;3.15;;;11.20;99.90;;;;;;4973410;28;20641;-79
2023/03/29 09:08:43;;;;;;;6.70;2.90;;;11.00;99.90;;;;;;4973353;28;20210;-81
2023/03/29 09:11:33;;;;;;;4.17;2.60;;;10.70;99.90;;;;;;4972302;28;20228;-81
2023/03/29 09:14:23;;;;;;;5.63;2.87;;;10.40;99.90;;;;;;4972153;28;20293;-81
2023/03/29 09:16:57;;;;;;;5.03;2.70;;;10.50;99.90;;;;;;4984432;28;20273;-77
2023/03/29 09:19:36;;;;;;;4.93;2.77;;;10.60;99.90;;;;;;4983879;28;20202;-81
2023/03/29 09:22:23;;;;;;;5.10;2.77;;;10.60;99.90;;;;;;4991651;28;20653;-77
2023/03/29 09:25:23;;;;;;;7.73;2.70;;;10.50;99.90;;;;;;4966660;28;20234;-81
2023/03/29 09:28:18;;;;;;;5.77;3.17;;;10.70;99.90;;;;;;4961390;28;20266;-81
2023/03/29 09:31:09;;;;;;;4.70;2.70;;;10.70;99.90;;;;;;4958154;28;20222;-80
2023/03/29 09:33:50;;;;;;;10.43;6.57;;;10.90;99.90;;;;;;4955046;28;20211;-82
2023/03/29 09:36:16;;;;;;;4.40;3.13;;;11.50;99.90;;;;;;4971535;28;20205;-81
2023/03/29 09:38:46;;;;;;;3.83;2.23;;;11.70;99.90;;;;;;4975709;28;20212;-80
2023/03/29 09:41:33;;;;;;;5.50;2.83;;;11.80;99.90;;;;;;4975059;28;20687;-80
2023/03/29 09:44:06;;;;;;;4.23;2.50;;;11.20;99.90;;;;;;4974387;28;20202;-80
2023/03/29 09:46:40;;;;;;;5.23;2.60;;;11.10;99.90;;;;;;4974874;28;20293;-81
2023/03/29 09:49:13;;;;;;;3.03;2.33;;;11.10;99.90;;;;;;4973963;28;20182;-81
2023/03/29 09:51:41;;;;;;;9.13;2.90;;;11.30;99.90;;;;;;4976599;28;20222;-80
2023/03/29 09:54:10;;;;;;;4.17;2.67;;;11.30;99.90;;;;;;4981007;28;20249;-80
2023/03/29 09:56:36;;;;;;;12.23;8.43;;;11.40;99.90;;;;;;4980310;28;20219;-79
2023/03/29 09:59:02;;;;;;;7.87;5.83;;;11.40;99.90;;;;;;4975941;28;20229;-80
2023/03/29 10:01:37;;;;;;;7.53;3.50;;;11.20;99.90;;;;;;4983689;28;20635;-80
2023/03/29 10:04:06;;;;;;;5.77;2.70;;;11.00;99.90;;;;;;4978402;28;20209;-81
2023/03/29 10:06:33;;;;;;;5.23;2.57;;;11.10;99.90;;;;;;4978271;28;20209;-81
2023/03/29 10:08:59;;;;;;;7.23;3.57;;;11.10;99.90;;;;;;4975983;28;20218;-81
2023/03/29 10:11:35;;;;;;;6.13;2.97;;;11.10;99.90;;;;;;4973692;28;20244;-80
2023/03/29 10:14:31;;;;;;;4.10;2.23;;;11.40;99.90;;;;;;4975030;28;20216;-79
2023/03/29 10:16:57;;;;;;;4.00;2.60;;;11.60;99.90;;;;;;4975828;28;20608;-81
2023/03/29 10:19:29;;;;;;;2.87;2.30;;;11.70;99.90;;;;;;4975168;28;20689;-81
2023/03/29 10:21:59;;;;;;;7.50;3.30;;;11.80;99.90;;;;;;4975049;28;20584;-82
2023/03/29 10:24:26;;;;;;;6.07;3.20;;;11.80;99.90;;;;;;4976252;28;20198;-80
2023/03/29 10:27:01;;;;;;;5.73;3.50;;;11.60;99.90;;;;;;4977062;28;20206;-80
2023/03/29 10:29:41;;;;;;;5.70;3.43;;;11.80;99.90;;;;;;4976162;28;20209;-79
2023/03/29 10:32:33;;;;;;;6.50;3.20;;;11.70;99.90;;;;;;4985626;28;20271;-81
2023/03/29 10:35:11;;;;;;;4.27;2.77;;;11.60;99.90;;;;;;4998285;28;20214;-82
2023/03/29 10:37:47;;;;;;;4.10;2.60;;;11.50;99.90;;;;;;4989789;28;20206;-81
2023/03/29 10:40:31;;;;;;;7.10;3.27;;;11.80;99.90;;;;;;4987416;28;20202;-82
2023/03/29 10:42:59;;;;;;;5.27;2.97;;;11.90;99.90;;;;;;4968148;28;20334;-81
2023/03/29 10:45:29;;;;;;;5.47;2.87;;;12.00;99.90;;;;;;4967229;28;20206;-81
2023/03/29 10:47:56;;;;;;;6.80;3.07;;;11.60;99.90;;;;;;4965650;28;20210;-81
2023/03/29 10:50:22;;;;;;;5.03;3.70;;;11.60;99.90;;;;;;4965582;28;20281;-79
2023/03/29 10:52:49;;;;;;;4.40;2.80;;;11.80;99.90;;;;;;4962788;28;20215;-81
2023/03/29 10:55:15;;;;;;;6.57;2.97;;;12.00;99.90;;;;;;4967908;28;20177;-81
2023/03/29 10:57:55;;;;;;;6.43;3.03;;;11.80;99.90;;;;;;4963323;28;20250;-81
2023/03/29 11:00:39;;;;;;;4.93;3.20;;;11.80;99.90;;;;;;4978674;28;20720;-80
2023/03/29 11:03:39;;;;;;;3.63;2.70;;;11.80;99.90;;;;;;4959316;28;20235;-79
2023/03/29 11:06:31;;;;;;;5.70;2.97;;;11.60;99.90;;;;;;4958761;28;20219;-79
2023/03/29 11:09:25;;;;;;;3.70;2.40;;;11.30;99.90;;;;;;4949048;28;20222;-81
2023/03/29 11:12:14;;;;;;;3.50;2.23;;;11.30;99.90;;;;;;4969030;28;20219;-81
2023/03/29 11:14:58;;;;;;;4.33;2.67;;;11.40;99.90;;;;;;4962466;28;20294;-80
2023/03/29 11:17:54;;;;;;;5.17;3.13;;;11.50;99.90;;;;;;4963135;28;20249;-79
2023/03/29 11:20:42;;;;;;;3.23;2.93;;;11.50;99.90;;;;;;4962927;28;20248;-81
2023/03/29 11:23:28;;;;;;;4.30;2.37;;;11.50;99.90;;;;;;4966223;28;20218;-77
2023/03/29 11:26:16;;;;;;;4.17;3.00;;;11.50;99.90;;;;;;4954428;28;20301;-77
2023/03/29 11:28:41;;;;;;;4.80;2.87;;;11.70;99.90;;;;;;4953212;28;20183;-77
2023/03/29 11:31:30;;;;;;;4.30;3.20;;;11.80;99.90;;;;;;4958270;28;20532;-78
2023/03/29 11:34:16;;;;;;;4.57;2.90;;;11.90;99.90;;;;;;4974599;28;20222;-78
2023/03/29 11:36:42;;;;;;;4.50;2.53;;;12.20;99.90;;;;;;4982729;28;20684;-78
2023/03/29 11:39:08;;;;;;;5.60;3.07;;;12.20;99.90;;;;;;4960378;28;20217;-78
2023/03/29 11:41:37;;;;;;;2.87;2.50;;;12.20;99.90;;;;;;4959463;28;20293;-78
2023/03/29 11:44:27;;;;;;;7.22;3.22;;;12.40;99.90;;;;;;4955118;28;20211;-79
2023/03/29 11:47:11;;;;;;;5.37;2.40;;;12.40;99.90;;;;;;4951212;28;20246;-78
2023/03/29 11:49:57;;;;;;;4.60;2.63;;;12.30;99.90;;;;;;4952193;28;20186;-78
2023/03/29 11:52:34;;;;;;;4.28;2.42;;;12.20;99.90;;;;;;4961332;28;20175;-78
2023/03/29 11:55:22;;;;;;;5.17;2.83;;;12.30;99.90;;;;;;4960509;28;20195;-78
2023/03/29 11:58:12;;;;;;;3.57;2.67;;;12.30;99.90;;;;;;4956749;28;20698;-79
2023/03/29 12:00:47;;;;;;;3.92;2.25;;;12.40;99.90;;;;;;4965056;28;20242;-78
2023/03/29 12:03:43;;;;;;;4.20;2.38;;;12.20;99.90;;;;;;4971960;28;20210;-78
2023/03/29 12:06:16;;;;;;;5.10;2.83;;;12.50;99.90;;;;;;4976551;28;20278;-78
2023/03/29 12:09:02;;;;;;;4.50;2.83;;;12.50;99.90;;;;;;4971437;28;20575;-78
2023/03/29 12:11:44;;;;;;;5.07;2.70;;;12.70;99.90;;;;;;4972922;28;20297;-78
2023/03/29 12:14:18;;;;;;;4.35;2.85;;;12.70;99.90;;;;;;4971521;28;20247;-78
2023/03/29 12:17:03;;;;;;;5.65;3.15;;;12.70;99.90;;;;;;4975282;28;20260;-78
2023/03/29 12:19:35;;;;;;;5.47;3.80;;;12.60;99.90;;;;;;4974445;28;20252;-78
2023/03/29 12:22:01;;;;;;;7.88;2.78;;;12.50;99.90;;;;;;4970004;28;20217;-77
2023/03/29 12:24:30;;;;;;;3.50;2.75;;;12.40;99.90;;;;;;4968915;28;20206;-78
2023/03/29 12:27:02;;;;;;;7.43;3.33;;;12.20;99.90;;;;;;4967803;28;20643;-78
2023/03/29 12:29:42;;;;;;;4.73;3.33;;;12.20;99.90;;;;;;4987812;28;20222;-78
2023/03/29 12:32:36;;;;;;;11.77;2.97;;;12.10;99.90;;;;;;4979848;28;20237;-77
2023/03/29 12:35:13;;;;;;;3.73;2.33;;;12.00;99.90;;;;;;4973089;28;20217;-78
2023/03/29 12:37:51;;;;;;;4.07;2.53;;;11.90;99.90;;;;;;4977601;28;20206;-76
2023/03/29 12:40:20;;;;;;;5.47;3.23;;;12.00;99.90;;;;;;4995472;28;20209;-78
2023/03/29 12:43:05;;;;;;;4.93;2.77;;;12.00;99.90;;;;;;4971260;28;20209;-78
2023/03/29 12:45:41;;;;;;;4.83;2.87;;;12.10;99.90;;;;;;4971963;28;20799;-77
2023/03/29 12:48:22;;;;;;;5.63;2.87;;;12.00;99.90;;;;;;4972808;28;20210;-77
2023/03/29 12:51:12;;;;;;;4.67;2.63;;;12.00;99.90;;;;;;4972939;28;20731;-77
2023/03/29 12:53:45;;;;;;;12.83;2.87;;;12.20;99.90;;;;;;4968053;28;20763;-77
2023/03/29 12:56:12;;;;;;;4.73;2.57;;;12.20;99.90;;;;;;4972596;28;20210;-77
2023/03/29 12:58:38;;;;;;;6.33;3.00;;;12.10;99.90;;;;;;4971724;28;20216;-76
2023/03/29 13:01:10;;;;;;;5.13;2.40;;;12.20;99.90;;;;;;4973016;28;20210;-77
2023/03/29 13:03:38;;;;;;;3.90;2.40;;;12.10;99.90;;;;;;4971963;28;20425;-78
2023/03/29 13:06:09;;;;;;;5.73;2.57;;;12.30;99.90;;;;;;4980626;28;20210;-77
2023/03/29 13:08:43;;;;;;;3.60;2.50;;;12.50;99.90;;;;;;4984817;28;20197;-82
2023/03/29 13:11:26;;;;;;;6.57;2.63;;;12.50;99.90;;;;;;4984779;28;20660;-80
2023/03/29 13:13:52;;;;;;;4.40;2.33;;;12.50;99.90;;;;;;4979859;28;20216;-81
2023/03/29 13:16:27;;;;;;;4.28;2.58;;;12.60;99.90;;;;;;4985885;28;20234;-81